sensor_id;sensor_type;location;lat;lon;timestamp;P1;durP1;ratioP1;P2;durP2;ratioP2
2638;SDS011;1329;51.384;7.122;2022-10-31T00:00:32;6.65;;;5.45;;
2638;SDS011;1329;51.384;7.122;2022-10-31T00:02:59;7.53;;;6.18;;
2638;SDS011;1329;51.384;7.122;2022-10-31T00:05:25;6.82;;;5.55;;
2638;SDS011;1329;51.384;7.122;2022-10-31T00:07:52;7.30;;;5.47;;
2638;SDS011;1329;51.384;7.122;2022-10-31T00:10:19;6.93;;;5.20;;
2638;SDS011;1329;51.384;7.122;2022-10-31T00:12:46;6.18;;;4.97;;
2638;SDS011;1329;51.384;7.122;2022-10-31T00:15:14;6.47;;;4.88;;
2638;SDS011;1329;51.384;7.122;2022-10-31T00:17:41;6.72;;;4.90;;
2638;SDS011;1329;51.384;7.122;2022-10-31T00:20:08;7.65;;;4.70;;
2638;SDS011;1329;51.384;7.122;2022-10-31T00:22:36;6.32;;;5.13;;
2638;SDS011;1329;51.384;7.122;2022-10-31T00:25:03;5.18;;;4.30;;
2638;SDS011;1329;51.384;7.122;2022-10-31T00:27:30;6.22;;;4.72;;
2638;SDS011;1329;51.384;7.122;2022-10-31T00:29:57;6.65;;;4.80;;
2638;SDS011;1329;51.384;7.122;2022-10-31T00:32:28;5.03;;;4.20;;
2638;SDS011;1329;51.384;7.122;2022-10-31T00:34:55;5.97;;;4.65;;
2638;SDS011;1329;51.384;7.122;2022-10-31T00:37:21;6.28;;;4.95;;
2638;SDS011;1329;51.384;7.122;2022-10-31T00:39:48;6.25;;;4.45;;
2638;SDS011;1329;51.384;7.122;2022-10-31T00:42:15;6.03;;;4.75;;
2638;SDS011;1329;51.384;7.122;2022-10-31T00:44:42;5.30;;;4.70;;
2638;SDS011;1329;51.384;7.122;2022-10-31T00:47:09;5.68;;;4.63;;
2638;SDS011;1329;51.384;7.122;2022-10-31T00:49:37;5.32;;;4.47;;
2638;SDS011;1329;51.384;7.122;2022-10-31T00:52:04;6.55;;;4.57;;
2638;SDS011;1329;51.384;7.122;2022-10-31T00:54:31;6.07;;;4.28;;
2638;SDS011;1329;51.384;7.122;2022-10-31T00:56:58;5.72;;;4.75;;
2638;SDS011;1329;51.384;7.122;2022-10-31T00:59:24;7.03;;;4.82;;
2638;SDS011;1329;51.384;7.122;2022-10-31T01:01:51;8.20;;;4.78;;
2638;SDS011;1329;51.384;7.122;2022-10-31T01:04:18;6.32;;;4.93;;
2638;SDS011;1329;51.384;7.122;2022-10-31T01:06:47;6.18;;;4.82;;
2638;SDS011;1329;51.384;7.122;2022-10-31T01:09:13;5.72;;;4.78;;
2638;SDS011;1329;51.384;7.122;2022-10-31T01:11:40;6.60;;;5.82;;
2638;SDS011;1329;51.384;7.122;2022-10-31T01:14:07;7.72;;;5.50;;
2638;SDS011;1329;51.384;7.122;2022-10-31T01:16:34;7.78;;;5.22;;
2638;SDS011;1329;51.384;7.122;2022-10-31T01:19:01;9.05;;;5.35;;
2638;SDS011;1329;51.384;7.122;2022-10-31T01:21:29;7.82;;;4.72;;
2638;SDS011;1329;51.384;7.122;2022-10-31T01:23:57;6.03;;;4.65;;
2638;SDS011;1329;51.384;7.122;2022-10-31T01:26:24;6.05;;;4.47;;
2638;SDS011;1329;51.384;7.122;2022-10-31T01:28:53;6.85;;;4.72;;
2638;SDS011;1329;51.384;7.122;2022-10-31T01:31:24;5.95;;;4.85;;
2638;SDS011;1329;51.384;7.122;2022-10-31T01:33:53;7.90;;;4.90;;
2638;SDS011;1329;51.384;7.122;2022-10-31T01:36:22;7.35;;;4.97;;
2638;SDS011;1329;51.384;7.122;2022-10-31T01:38:52;6.32;;;5.10;;
2638;SDS011;1329;51.384;7.122;2022-10-31T01:41:24;6.82;;;4.63;;
2638;SDS011;1329;51.384;7.122;2022-10-31T01:43:55;6.28;;;4.68;;
2638;SDS011;1329;51.384;7.122;2022-10-31T01:46:24;6.22;;;4.35;;
2638;SDS011;1329;51.384;7.122;2022-10-31T01:48:54;5.72;;;4.47;;
2638;SDS011;1329;51.384;7.122;2022-10-31T01:51:24;6.50;;;4.20;;
2638;SDS011;1329;51.384;7.122;2022-10-31T01:53:54;6.78;;;4.85;;
2638;SDS011;1329;51.384;7.122;2022-10-31T01:56:25;5.13;;;4.45;;
2638;SDS011;1329;51.384;7.122;2022-10-31T01:58:53;6.75;;;4.97;;
2638;SDS011;1329;51.384;7.122;2022-10-31T02:01:22;4.90;;;4.20;;
2638;SDS011;1329;51.384;7.122;2022-10-31T02:03:49;5.18;;;4.43;;
2638;SDS011;1329;51.384;7.122;2022-10-31T02:06:19;6.68;;;4.72;;
2638;SDS011;1329;51.384;7.122;2022-10-31T02:08:54;6.95;;;4.32;;
2638;SDS011;1329;51.384;7.122;2022-10-31T02:11:23;6.05;;;4.22;;
2638;SDS011;1329;51.384;7.122;2022-10-31T02:13:52;6.60;;;4.45;;
2638;SDS011;1329;51.384;7.122;2022-10-31T02:16:19;6.65;;;4.50;;
2638;SDS011;1329;51.384;7.122;2022-10-31T02:18:46;5.97;;;4.70;;
2638;SDS011;1329;51.384;7.122;2022-10-31T02:21:15;5.63;;;4.25;;
2638;SDS011;1329;51.384;7.122;2022-10-31T02:23:54;5.10;;;4.43;;
2638;SDS011;1329;51.384;7.122;2022-10-31T02:29:40;6.28;;;4.47;;
2638;SDS011;1329;51.384;7.122;2022-10-31T02:32:36;6.63;;;4.45;;
2638;SDS011;1329;51.384;7.122;2022-10-31T02:35:13;7.68;;;4.40;;
2638;SDS011;1329;51.384;7.122;2022-10-31T02:37:55;6.28;;;4.20;;
2638;SDS011;1329;51.384;7.122;2022-10-31T02:40:33;5.70;;;4.43;;
2638;SDS011;1329;51.384;7.122;2022-10-31T02:43:06;5.05;;;4.55;;
2638;SDS011;1329;51.384;7.122;2022-10-31T02:45:41;5.97;;;4.97;;
2638;SDS011;1329;51.384;7.122;2022-10-31T02:48:18;8.45;;;4.63;;
2638;SDS011;1329;51.384;7.122;2022-10-31T02:50:50;5.97;;;4.80;;
2638;SDS011;1329;51.384;7.122;2022-10-31T02:53:22;7.45;;;5.00;;
2638;SDS011;1329;51.384;7.122;2022-10-31T02:55:51;9.35;;;5.13;;
2638;SDS011;1329;51.384;7.122;2022-10-31T02:58:25;6.07;;;4.78;;
2638;SDS011;1329;51.384;7.122;2022-10-31T03:01:07;7.80;;;5.00;;
2638;SDS011;1329;51.384;7.122;2022-10-31T03:04:05;7.28;;;5.10;;
2638;SDS011;1329;51.384;7.122;2022-10-31T03:06:49;5.22;;;4.53;;
2638;SDS011;1329;51.384;7.122;2022-10-31T03:09:24;8.70;;;5.50;;
2638;SDS011;1329;51.384;7.122;2022-10-31T03:11:57;6.68;;;4.78;;
2638;SDS011;1329;51.384;7.122;2022-10-31T03:14:31;5.63;;;4.63;;
2638;SDS011;1329;51.384;7.122;2022-10-31T03:17:07;5.78;;;4.90;;
2638;SDS011;1329;51.384;7.122;2022-10-31T03:19:42;5.55;;;4.70;;
2638;SDS011;1329;51.384;7.122;2022-10-31T03:22:15;5.60;;;4.97;;
2638;SDS011;1329;51.384;7.122;2022-10-31T03:24:44;6.30;;;5.45;;
2638;SDS011;1329;51.384;7.122;2022-10-31T03:27:14;6.25;;;4.38;;
2638;SDS011;1329;51.384;7.122;2022-10-31T03:29:47;6.97;;;4.60;;
2638;SDS011;1329;51.384;7.122;2022-10-31T03:32:17;5.78;;;4.88;;
2638;SDS011;1329;51.384;7.122;2022-10-31T03:34:49;6.57;;;4.65;;
2638;SDS011;1329;51.384;7.122;2022-10-31T03:37:18;8.10;;;4.90;;
2638;SDS011;1329;51.384;7.122;2022-10-31T03:39:47;7.07;;;4.88;;
2638;SDS011;1329;51.384;7.122;2022-10-31T03:42:16;6.25;;;5.20;;
2638;SDS011;1329;51.384;7.122;2022-10-31T03:44:49;5.80;;;4.85;;
2638;SDS011;1329;51.384;7.122;2022-10-31T03:47:21;5.57;;;4.78;;
2638;SDS011;1329;51.384;7.122;2022-10-31T03:49:49;6.82;;;4.40;;
2638;SDS011;1329;51.384;7.122;2022-10-31T03:52:18;6.95;;;4.80;;
2638;SDS011;1329;51.384;7.122;2022-10-31T03:54:52;7.78;;;4.97;;
2638;SDS011;1329;51.384;7.122;2022-10-31T03:57:22;6.53;;;5.05;;
2638;SDS011;1329;51.384;7.122;2022-10-31T03:59:55;7.32;;;5.15;;
2638;SDS011;1329;51.384;7.122;2022-10-31T04:02:29;6.45;;;4.65;;
2638;SDS011;1329;51.384;7.122;2022-10-31T04:05:00;7.22;;;5.25;;
2638;SDS011;1329;51.384;7.122;2022-10-31T04:07:28;6.53;;;4.85;;
2638;SDS011;1329;51.384;7.122;2022-10-31T04:09:58;6.80;;;5.32;;
2638;SDS011;1329;51.384;7.122;2022-10-31T04:12:29;6.15;;;4.85;;
2638;SDS011;1329;51.384;7.122;2022-10-31T04:14:57;6.47;;;5.18;;
2638;SDS011;1329;51.384;7.122;2022-10-31T04:17:27;9.55;;;5.38;;
2638;SDS011;1329;51.384;7.122;2022-10-31T04:20:00;8.98;;;5.55;;
2638;SDS011;1329;51.384;7.122;2022-10-31T04:22:27;8.40;;;5.25;;
2638;SDS011;1329;51.384;7.122;2022-10-31T04:24:54;7.07;;;5.50;;
2638;SDS011;1329;51.384;7.122;2022-10-31T04:27:21;7.78;;;5.38;;
2638;SDS011;1329;51.384;7.122;2022-10-31T04:29:48;8.07;;;5.70;;
2638;SDS011;1329;51.384;7.122;2022-10-31T04:32:15;8.30;;;6.10;;
2638;SDS011;1329;51.384;7.122;2022-10-31T04:34:42;8.98;;;6.03;;
2638;SDS011;1329;51.384;7.122;2022-10-31T04:37:10;7.90;;;6.10;;
2638;SDS011;1329;51.384;7.122;2022-10-31T04:39:37;7.50;;;5.80;;
2638;SDS011;1329;51.384;7.122;2022-10-31T04:42:04;6.68;;;5.70;;
2638;SDS011;1329;51.384;7.122;2022-10-31T04:44:31;7.72;;;5.90;;
2638;SDS011;1329;51.384;7.122;2022-10-31T04:46:58;10.88;;;6.25;;
2638;SDS011;1329;51.384;7.122;2022-10-31T04:49:25;9.75;;;7.15;;
2638;SDS011;1329;51.384;7.122;2022-10-31T04:51:51;9.05;;;6.80;;
2638;SDS011;1329;51.384;7.122;2022-10-31T04:54:20;8.60;;;7.05;;
2638;SDS011;1329;51.384;7.122;2022-10-31T04:56:46;9.75;;;6.82;;
2638;SDS011;1329;51.384;7.122;2022-10-31T04:59:13;7.30;;;6.57;;
2638;SDS011;1329;51.384;7.122;2022-10-31T05:01:40;8.23;;;6.63;;
2638;SDS011;1329;51.384;7.122;2022-10-31T05:04:07;8.23;;;6.85;;
2638;SDS011;1329;51.384;7.122;2022-10-31T05:06:34;9.38;;;7.30;;
2638;SDS011;1329;51.384;7.122;2022-10-31T05:09:01;9.90;;;7.50;;
2638;SDS011;1329;51.384;7.122;2022-10-31T05:11:29;9.23;;;7.43;;
2638;SDS011;1329;51.384;7.122;2022-10-31T05:13:56;9.60;;;7.53;;
2638;SDS011;1329;51.384;7.122;2022-10-31T05:16:23;9.32;;;7.22;;
2638;SDS011;1329;51.384;7.122;2022-10-31T05:18:50;9.25;;;6.97;;
2638;SDS011;1329;51.384;7.122;2022-10-31T05:21:17;11.18;;;7.10;;
2638;SDS011;1329;51.384;7.122;2022-10-31T05:23:43;8.48;;;7.40;;
2638;SDS011;1329;51.384;7.122;2022-10-31T05:26:10;8.52;;;7.10;;
2638;SDS011;1329;51.384;7.122;2022-10-31T05:28:39;11.95;;;7.65;;
2638;SDS011;1329;51.384;7.122;2022-10-31T05:31:05;13.30;;;8.30;;
2638;SDS011;1329;51.384;7.122;2022-10-31T05:33:32;10.45;;;7.93;;
2638;SDS011;1329;51.384;7.122;2022-10-31T05:35:59;10.32;;;7.25;;
2638;SDS011;1329;51.384;7.122;2022-10-31T05:38:26;10.30;;;8.05;;
2638;SDS011;1329;51.384;7.122;2022-10-31T05:40:54;9.02;;;7.63;;
2638;SDS011;1329;51.384;7.122;2022-10-31T05:43:25;10.70;;;7.70;;
2638;SDS011;1329;51.384;7.122;2022-10-31T05:45:53;9.77;;;7.60;;
2638;SDS011;1329;51.384;7.122;2022-10-31T05:48:21;11.85;;;8.13;;
2638;SDS011;1329;51.384;7.122;2022-10-31T05:50:48;9.10;;;7.40;;
2638;SDS011;1329;51.384;7.122;2022-10-31T05:53:15;8.82;;;7.13;;
2638;SDS011;1329;51.384;7.122;2022-10-31T05:55:43;8.98;;;6.97;;
2638;SDS011;1329;51.384;7.122;2022-10-31T05:58:10;8.70;;;6.70;;
2638;SDS011;1329;51.384;7.122;2022-10-31T06:00:37;11.32;;;8.32;;
2638;SDS011;1329;51.384;7.122;2022-10-31T06:03:06;10.25;;;7.05;;
2638;SDS011;1329;51.384;7.122;2022-10-31T06:05:34;9.57;;;7.30;;
2638;SDS011;1329;51.384;7.122;2022-10-31T06:08:01;9.65;;;7.28;;
2638;SDS011;1329;51.384;7.122;2022-10-31T06:10:28;9.95;;;8.13;;
2638;SDS011;1329;51.384;7.122;2022-10-31T06:12:55;12.77;;;8.57;;
2638;SDS011;1329;51.384;7.122;2022-10-31T06:15:23;9.57;;;7.40;;
2638;SDS011;1329;51.384;7.122;2022-10-31T06:17:57;9.57;;;7.70;;
2638;SDS011;1329;51.384;7.122;2022-10-31T06:20:30;7.78;;;6.43;;
2638;SDS011;1329;51.384;7.122;2022-10-31T06:22:57;8.00;;;6.75;;
2638;SDS011;1329;51.384;7.122;2022-10-31T06:25:24;8.63;;;7.07;;
2638;SDS011;1329;51.384;7.122;2022-10-31T06:27:51;8.13;;;7.20;;
2638;SDS011;1329;51.384;7.122;2022-10-31T06:30:18;10.77;;;7.20;;
2638;SDS011;1329;51.384;7.122;2022-10-31T06:32:45;9.40;;;7.55;;
2638;SDS011;1329;51.384;7.122;2022-10-31T06:35:12;9.30;;;7.05;;
2638;SDS011;1329;51.384;7.122;2022-10-31T06:37:40;8.55;;;6.78;;
2638;SDS011;1329;51.384;7.122;2022-10-31T06:40:07;7.85;;;7.05;;
2638;SDS011;1329;51.384;7.122;2022-10-31T06:42:36;12.43;;;7.35;;
2638;SDS011;1329;51.384;7.122;2022-10-31T06:45:03;9.10;;;7.80;;
2638;SDS011;1329;51.384;7.122;2022-10-31T06:47:30;10.27;;;7.75;;
2638;SDS011;1329;51.384;7.122;2022-10-31T06:49:57;9.80;;;7.32;;
2638;SDS011;1329;51.384;7.122;2022-10-31T06:52:24;9.80;;;7.50;;
2638;SDS011;1329;51.384;7.122;2022-10-31T06:54:52;12.75;;;8.68;;
2638;SDS011;1329;51.384;7.122;2022-10-31T06:57:19;10.73;;;7.57;;
2638;SDS011;1329;51.384;7.122;2022-10-31T06:59:46;10.38;;;8.52;;
2638;SDS011;1329;51.384;7.122;2022-10-31T07:02:13;11.93;;;8.70;;
2638;SDS011;1329;51.384;7.122;2022-10-31T07:04:39;10.23;;;7.88;;
2638;SDS011;1329;51.384;7.122;2022-10-31T07:07:06;10.52;;;8.45;;
2638;SDS011;1329;51.384;7.122;2022-10-31T07:09:33;11.40;;;7.97;;
2638;SDS011;1329;51.384;7.122;2022-10-31T07:12:01;10.00;;;8.82;;
2638;SDS011;1329;51.384;7.122;2022-10-31T07:14:29;10.25;;;8.60;;
2638;SDS011;1329;51.384;7.122;2022-10-31T07:16:55;11.13;;;8.48;;
2638;SDS011;1329;51.384;7.122;2022-10-31T07:19:22;10.88;;;8.38;;
2638;SDS011;1329;51.384;7.122;2022-10-31T07:21:49;12.43;;;9.48;;
2638;SDS011;1329;51.384;7.122;2022-10-31T07:24:16;9.82;;;8.63;;
2638;SDS011;1329;51.384;7.122;2022-10-31T07:26:43;10.48;;;9.13;;
2638;SDS011;1329;51.384;7.122;2022-10-31T07:29:12;11.40;;;9.25;;
2638;SDS011;1329;51.384;7.122;2022-10-31T07:31:39;11.43;;;8.85;;
2638;SDS011;1329;51.384;7.122;2022-10-31T07:34:06;11.27;;;8.95;;
2638;SDS011;1329;51.384;7.122;2022-10-31T07:36:33;12.68;;;9.05;;
2638;SDS011;1329;51.384;7.122;2022-10-31T07:39:00;10.70;;;8.15;;
2638;SDS011;1329;51.384;7.122;2022-10-31T07:41:27;11.68;;;9.02;;
2638;SDS011;1329;51.384;7.122;2022-10-31T07:43:54;9.93;;;8.52;;
2638;SDS011;1329;51.384;7.122;2022-10-31T07:46:22;10.95;;;8.25;;
2638;SDS011;1329;51.384;7.122;2022-10-31T07:48:49;12.63;;;9.23;;
2638;SDS011;1329;51.384;7.122;2022-10-31T07:51:16;11.73;;;8.73;;
2638;SDS011;1329;51.384;7.122;2022-10-31T07:53:43;10.38;;;9.10;;
2638;SDS011;1329;51.384;7.122;2022-10-31T07:56:10;11.55;;;9.23;;
2638;SDS011;1329;51.384;7.122;2022-10-31T07:58:37;11.10;;;9.57;;
2638;SDS011;1329;51.384;7.122;2022-10-31T08:01:04;11.32;;;8.98;;
2638;SDS011;1329;51.384;7.122;2022-10-31T08:03:33;11.88;;;9.10;;
2638;SDS011;1329;51.384;7.122;2022-10-31T08:05:59;10.10;;;8.93;;
2638;SDS011;1329;51.384;7.122;2022-10-31T08:08:26;11.07;;;9.68;;
2638;SDS011;1329;51.384;7.122;2022-10-31T08:10:54;10.30;;;8.98;;
2638;SDS011;1329;51.384;7.122;2022-10-31T08:13:21;10.45;;;9.20;;
2638;SDS011;1329;51.384;7.122;2022-10-31T08:15:48;9.65;;;8.55;;
2638;SDS011;1329;51.384;7.122;2022-10-31T08:18:17;11.50;;;8.95;;
2638;SDS011;1329;51.384;7.122;2022-10-31T08:20:45;11.48;;;8.77;;
2638;SDS011;1329;51.384;7.122;2022-10-31T08:23:12;11.93;;;8.85;;
2638;SDS011;1329;51.384;7.122;2022-10-31T08:25:40;12.13;;;8.80;;
2638;SDS011;1329;51.384;7.122;2022-10-31T08:28:08;11.18;;;9.02;;
2638;SDS011;1329;51.384;7.122;2022-10-31T08:30:37;12.98;;;9.25;;
2638;SDS011;1329;51.384;7.122;2022-10-31T08:33:05;11.57;;;9.00;;
2638;SDS011;1329;51.384;7.122;2022-10-31T08:35:36;10.07;;;9.02;;
2638;SDS011;1329;51.384;7.122;2022-10-31T08:38:05;11.93;;;8.85;;
2638;SDS011;1329;51.384;7.122;2022-10-31T08:40:34;10.20;;;8.88;;
2638;SDS011;1329;51.384;7.122;2022-10-31T08:43:02;10.80;;;8.68;;
2638;SDS011;1329;51.384;7.122;2022-10-31T08:45:32;12.13;;;9.23;;
2638;SDS011;1329;51.384;7.122;2022-10-31T08:48:00;11.43;;;10.23;;
2638;SDS011;1329;51.384;7.122;2022-10-31T08:50:30;9.75;;;8.75;;
2638;SDS011;1329;51.384;7.122;2022-10-31T08:52:59;12.30;;;9.10;;
2638;SDS011;1329;51.384;7.122;2022-10-31T08:55:28;9.80;;;8.73;;
2638;SDS011;1329;51.384;7.122;2022-10-31T08:57:56;11.10;;;8.82;;
2638;SDS011;1329;51.384;7.122;2022-10-31T09:00:23;9.50;;;7.97;;
2638;SDS011;1329;51.384;7.122;2022-10-31T09:02:54;9.90;;;8.52;;
2638;SDS011;1329;51.384;7.122;2022-10-31T09:05:22;10.80;;;7.78;;
2638;SDS011;1329;51.384;7.122;2022-10-31T09:07:49;9.30;;;7.95;;
2638;SDS011;1329;51.384;7.122;2022-10-31T09:10:16;14.65;;;9.70;;
2638;SDS011;1329;51.384;7.122;2022-10-31T09:12:45;10.68;;;8.93;;
2638;SDS011;1329;51.384;7.122;2022-10-31T09:15:11;13.25;;;10.20;;
2638;SDS011;1329;51.384;7.122;2022-10-31T09:17:38;13.70;;;10.50;;
2638;SDS011;1329;51.384;7.122;2022-10-31T09:20:05;14.70;;;10.50;;
2638;SDS011;1329;51.384;7.122;2022-10-31T09:22:34;14.05;;;10.50;;
2638;SDS011;1329;51.384;7.122;2022-10-31T09:25:00;11.57;;;10.05;;
2638;SDS011;1329;51.384;7.122;2022-10-31T09:27:27;12.07;;;9.73;;
2638;SDS011;1329;51.384;7.122;2022-10-31T09:29:56;13.65;;;10.65;;
2638;SDS011;1329;51.384;7.122;2022-10-31T09:32:22;17.88;;;13.10;;
2638;SDS011;1329;51.384;7.122;2022-10-31T09:34:49;20.85;;;13.60;;
2638;SDS011;1329;51.384;7.122;2022-10-31T09:37:16;16.50;;;12.68;;
2638;SDS011;1329;51.384;7.122;2022-10-31T09:39:43;19.55;;;13.40;;
2638;SDS011;1329;51.384;7.122;2022-10-31T09:42:19;17.52;;;12.93;;
2638;SDS011;1329;51.384;7.122;2022-10-31T09:45:07;19.75;;;14.07;;
2638;SDS011;1329;51.384;7.122;2022-10-31T09:47:47;16.95;;;13.15;;
2638;SDS011;1329;51.384;7.122;2022-10-31T09:50:40;18.23;;;12.95;;
2638;SDS011;1329;51.384;7.122;2022-10-31T09:53:15;16.73;;;12.45;;
2638;SDS011;1329;51.384;7.122;2022-10-31T09:55:50;15.90;;;12.68;;
2638;SDS011;1329;51.384;7.122;2022-10-31T09:58:19;16.25;;;12.35;;
2638;SDS011;1329;51.384;7.122;2022-10-31T10:00:51;15.57;;;12.18;;
2638;SDS011;1329;51.384;7.122;2022-10-31T10:03:24;17.25;;;13.32;;
2638;SDS011;1329;51.384;7.122;2022-10-31T10:06:01;18.30;;;12.85;;
2638;SDS011;1329;51.384;7.122;2022-10-31T10:08:37;17.30;;;13.20;;
2638;SDS011;1329;51.384;7.122;2022-10-31T10:11:17;17.10;;;13.52;;
2638;SDS011;1329;51.384;7.122;2022-10-31T10:14:11;18.42;;;13.02;;
2638;SDS011;1329;51.384;7.122;2022-10-31T10:17:01;17.23;;;12.57;;
2638;SDS011;1329;51.384;7.122;2022-10-31T10:19:45;17.75;;;13.32;;
2638;SDS011;1329;51.384;7.122;2022-10-31T10:22:33;19.50;;;13.13;;
2638;SDS011;1329;51.384;7.122;2022-10-31T10:25:13;18.48;;;13.77;;
2638;SDS011;1329;51.384;7.122;2022-10-31T10:27:49;15.88;;;12.20;;
2638;SDS011;1329;51.384;7.122;2022-10-31T10:30:30;16.75;;;12.20;;
2638;SDS011;1329;51.384;7.122;2022-10-31T10:33:08;18.13;;;13.40;;
2638;SDS011;1329;51.384;7.122;2022-10-31T10:35:39;17.10;;;12.50;;
2638;SDS011;1329;51.384;7.122;2022-10-31T10:38:13;16.80;;;13.23;;
2638;SDS011;1329;51.384;7.122;2022-10-31T10:40:52;19.25;;;13.18;;
2638;SDS011;1329;51.384;7.122;2022-10-31T10:43:21;17.70;;;13.82;;
2638;SDS011;1329;51.384;7.122;2022-10-31T10:45:57;17.77;;;14.07;;
2638;SDS011;1329;51.384;7.122;2022-10-31T10:49:02;16.40;;;12.15;;
2638;SDS011;1329;51.384;7.122;2022-10-31T10:51:42;17.70;;;12.88;;
2638;SDS011;1329;51.384;7.122;2022-10-31T10:54:19;17.08;;;12.75;;
2638;SDS011;1329;51.384;7.122;2022-10-31T10:57:07;15.07;;;11.98;;
2638;SDS011;1329;51.384;7.122;2022-10-31T10:59:48;15.20;;;12.30;;
2638;SDS011;1329;51.384;7.122;2022-10-31T11:02:16;17.08;;;12.00;;
2638;SDS011;1329;51.384;7.122;2022-10-31T11:04:48;15.82;;;11.32;;
2638;SDS011;1329;51.384;7.122;2022-10-31T11:07:18;16.80;;;11.60;;
2638;SDS011;1329;51.384;7.122;2022-10-31T11:09:45;14.25;;;11.18;;
2638;SDS011;1329;51.384;7.122;2022-10-31T11:12:16;13.07;;;10.80;;
2638;SDS011;1329;51.384;7.122;2022-10-31T11:14:48;13.07;;;11.38;;
2638;SDS011;1329;51.384;7.122;2022-10-31T11:17:20;14.15;;;11.13;;
2638;SDS011;1329;51.384;7.122;2022-10-31T11:20:01;12.40;;;9.90;;
2638;SDS011;1329;51.384;7.122;2022-10-31T11:22:30;16.23;;;10.48;;
2638;SDS011;1329;51.384;7.122;2022-10-31T11:24:58;14.70;;;10.32;;
2638;SDS011;1329;51.384;7.122;2022-10-31T11:27:25;11.85;;;9.50;;
2638;SDS011;1329;51.384;7.122;2022-10-31T11:29:52;13.23;;;9.93;;
2638;SDS011;1329;51.384;7.122;2022-10-31T11:32:31;13.90;;;9.43;;
2638;SDS011;1329;51.384;7.122;2022-10-31T11:35:01;12.02;;;8.68;;
2638;SDS011;1329;51.384;7.122;2022-10-31T11:37:40;11.85;;;8.45;;
2638;SDS011;1329;51.384;7.122;2022-10-31T11:40:15;12.05;;;9.00;;
2638;SDS011;1329;51.384;7.122;2022-10-31T11:42:44;12.25;;;8.68;;
2638;SDS011;1329;51.384;7.122;2022-10-31T11:45:14;14.25;;;9.00;;
2638;SDS011;1329;51.384;7.122;2022-10-31T11:47:44;11.43;;;8.88;;
2638;SDS011;1329;51.384;7.122;2022-10-31T11:50:18;13.27;;;9.18;;
2638;SDS011;1329;51.384;7.122;2022-10-31T11:52:47;10.60;;;8.77;;
2638;SDS011;1329;51.384;7.122;2022-10-31T11:55:16;12.27;;;8.93;;
2638;SDS011;1329;51.384;7.122;2022-10-31T11:57:57;10.25;;;8.13;;
2638;SDS011;1329;51.384;7.122;2022-10-31T12:00:24;11.50;;;8.93;;
2638;SDS011;1329;51.384;7.122;2022-10-31T12:03:04;9.32;;;8.15;;
2638;SDS011;1329;51.384;7.122;2022-10-31T12:05:38;15.02;;;8.43;;
2638;SDS011;1329;51.384;7.122;2022-10-31T12:08:08;10.52;;;8.40;;
2638;SDS011;1329;51.384;7.122;2022-10-31T12:10:39;11.73;;;8.73;;
2638;SDS011;1329;51.384;7.122;2022-10-31T12:13:21;12.98;;;8.45;;
2638;SDS011;1329;51.384;7.122;2022-10-31T12:16:00;11.82;;;7.90;;
2638;SDS011;1329;51.384;7.122;2022-10-31T12:18:40;11.38;;;7.80;;
2638;SDS011;1329;51.384;7.122;2022-10-31T12:21:27;10.43;;;7.60;;
2638;SDS011;1329;51.384;7.122;2022-10-31T12:24:07;9.68;;;7.72;;
2638;SDS011;1329;51.384;7.122;2022-10-31T12:26:47;10.18;;;7.93;;
2638;SDS011;1329;51.384;7.122;2022-10-31T12:29:26;10.65;;;6.85;;
2638;SDS011;1329;51.384;7.122;2022-10-31T12:32:13;10.27;;;6.80;;
2638;SDS011;1329;51.384;7.122;2022-10-31T12:37:56;9.10;;;5.82;;
2638;SDS011;1329;51.384;7.122;2022-10-31T12:40:43;7.70;;;5.20;;
2638;SDS011;1329;51.384;7.122;2022-10-31T12:43:36;7.38;;;5.60;;
2638;SDS011;1329;51.384;7.122;2022-10-31T12:46:13;7.63;;;5.00;;
2638;SDS011;1329;51.384;7.122;2022-10-31T12:49:03;6.20;;;4.70;;
2638;SDS011;1329;51.384;7.122;2022-10-31T12:51:50;7.15;;;4.60;;
2638;SDS011;1329;51.384;7.122;2022-10-31T12:54:58;7.60;;;4.90;;
2638;SDS011;1329;51.384;7.122;2022-10-31T12:57:36;6.32;;;4.22;;
2638;SDS011;1329;51.384;7.122;2022-10-31T13:00:11;4.28;;;3.50;;
2638;SDS011;1329;51.384;7.122;2022-10-31T13:02:42;5.38;;;3.80;;
2638;SDS011;1329;51.384;7.122;2022-10-31T13:05:17;5.68;;;3.47;;
2638;SDS011;1329;51.384;7.122;2022-10-31T13:07:52;6.80;;;4.13;;
2638;SDS011;1329;51.384;7.122;2022-10-31T13:10:25;5.95;;;3.55;;
2638;SDS011;1329;51.384;7.122;2022-10-31T13:12:58;6.55;;;3.45;;
2638;SDS011;1329;51.384;7.122;2022-10-31T13:15:32;6.88;;;3.38;;
2638;SDS011;1329;51.384;7.122;2022-10-31T13:18:12;5.88;;;3.60;;
2638;SDS011;1329;51.384;7.122;2022-10-31T13:20:49;4.93;;;3.53;;
2638;SDS011;1329;51.384;7.122;2022-10-31T13:23:20;5.82;;;3.25;;
2638;SDS011;1329;51.384;7.122;2022-10-31T13:25:55;8.20;;;3.65;;
2638;SDS011;1329;51.384;7.122;2022-10-31T13:28:26;6.40;;;3.38;;
2638;SDS011;1329;51.384;7.122;2022-10-31T13:30:59;5.80;;;3.70;;
2638;SDS011;1329;51.384;7.122;2022-10-31T13:33:28;6.28;;;3.70;;
2638;SDS011;1329;51.384;7.122;2022-10-31T13:36:07;5.50;;;3.33;;
2638;SDS011;1329;51.384;7.122;2022-10-31T13:38:46;6.30;;;3.70;;
2638;SDS011;1329;51.384;7.122;2022-10-31T13:41:22;4.07;;;3.33;;
2638;SDS011;1329;51.384;7.122;2022-10-31T13:44:05;5.18;;;3.60;;
2638;SDS011;1329;51.384;7.122;2022-10-31T13:46:40;4.32;;;3.30;;
2638;SDS011;1329;51.384;7.122;2022-10-31T13:52:14;4.50;;;3.55;;
2638;SDS011;1329;51.384;7.122;2022-10-31T13:54:48;4.95;;;3.33;;
2638;SDS011;1329;51.384;7.122;2022-10-31T13:57:24;5.63;;;3.55;;
2638;SDS011;1329;51.384;7.122;2022-10-31T13:59:59;4.20;;;3.60;;
2638;SDS011;1329;51.384;7.122;2022-10-31T14:02:31;6.88;;;3.60;;
2638;SDS011;1329;51.384;7.122;2022-10-31T14:05:01;5.75;;;3.40;;
2638;SDS011;1329;51.384;7.122;2022-10-31T14:07:30;5.00;;;3.75;;
2638;SDS011;1329;51.384;7.122;2022-10-31T14:09:59;5.25;;;3.35;;
2638;SDS011;1329;51.384;7.122;2022-10-31T14:12:33;7.13;;;3.35;;
2638;SDS011;1329;51.384;7.122;2022-10-31T14:15:05;5.40;;;3.30;;
2638;SDS011;1329;51.384;7.122;2022-10-31T14:17:45;7.38;;;3.10;;
2638;SDS011;1329;51.384;7.122;2022-10-31T14:23:13;4.93;;;3.00;;
2638;SDS011;1329;51.384;7.122;2022-10-31T14:26:17;5.53;;;3.40;;
2638;SDS011;1329;51.384;7.122;2022-10-31T14:29:00;3.80;;;2.90;;
2638;SDS011;1329;51.384;7.122;2022-10-31T14:31:44;5.95;;;3.50;;
2638;SDS011;1329;51.384;7.122;2022-10-31T14:34:36;5.50;;;3.25;;
2638;SDS011;1329;51.384;7.122;2022-10-31T14:40:39;6.05;;;3.38;;
2638;SDS011;1329;51.384;7.122;2022-10-31T14:43:22;6.13;;;3.40;;
2638;SDS011;1329;51.384;7.122;2022-10-31T14:46:06;4.95;;;3.00;;
2638;SDS011;1329;51.384;7.122;2022-10-31T14:48:51;4.93;;;3.35;;
2638;SDS011;1329;51.384;7.122;2022-10-31T14:51:33;6.20;;;3.40;;
2638;SDS011;1329;51.384;7.122;2022-10-31T14:54:05;4.60;;;3.15;;
2638;SDS011;1329;51.384;7.122;2022-10-31T14:56:42;5.82;;;3.20;;
2638;SDS011;1329;51.384;7.122;2022-10-31T14:59:21;6.07;;;3.55;;
2638;SDS011;1329;51.384;7.122;2022-10-31T15:01:55;5.47;;;3.50;;
2638;SDS011;1329;51.384;7.122;2022-10-31T15:04:27;6.40;;;3.35;;
2638;SDS011;1329;51.384;7.122;2022-10-31T15:06:59;5.07;;;3.45;;
2638;SDS011;1329;51.384;7.122;2022-10-31T15:09:33;6.50;;;3.60;;
2638;SDS011;1329;51.384;7.122;2022-10-31T15:12:16;4.57;;;3.78;;
2638;SDS011;1329;51.384;7.122;2022-10-31T15:14:50;6.07;;;3.40;;
2638;SDS011;1329;51.384;7.122;2022-10-31T15:17:19;5.05;;;3.53;;
2638;SDS011;1329;51.384;7.122;2022-10-31T15:19:47;5.07;;;3.53;;
2638;SDS011;1329;51.384;7.122;2022-10-31T15:22:16;5.35;;;3.90;;
2638;SDS011;1329;51.384;7.122;2022-10-31T15:24:46;5.93;;;3.42;;
2638;SDS011;1329;51.384;7.122;2022-10-31T15:27:21;7.43;;;3.92;;
2638;SDS011;1329;51.384;7.122;2022-10-31T15:29:50;6.20;;;3.17;;
2638;SDS011;1329;51.384;7.122;2022-10-31T15:32:20;5.75;;;3.53;;
2638;SDS011;1329;51.384;7.122;2022-10-31T15:34:50;4.63;;;3.20;;
2638;SDS011;1329;51.384;7.122;2022-10-31T15:37:18;5.45;;;3.30;;
2638;SDS011;1329;51.384;7.122;2022-10-31T15:39:49;6.00;;;3.70;;
2638;SDS011;1329;51.384;7.122;2022-10-31T15:42:18;5.78;;;3.50;;
2638;SDS011;1329;51.384;7.122;2022-10-31T15:44:48;4.88;;;3.90;;
2638;SDS011;1329;51.384;7.122;2022-10-31T15:47:20;5.38;;;3.10;;
2638;SDS011;1329;51.384;7.122;2022-10-31T15:49:50;5.72;;;3.35;;